sensor_id;sensor_type;location;lat;lon;timestamp;P1;durP1;ratioP1;P2;durP2;ratioP2
20056;SDS011;10189;49.546;7.906;2023-07-13T00:02:23;3.70;;;2.95;;
20056;SDS011;10189;49.546;7.906;2023-07-13T00:04:51;4.65;;;2.50;;
20056;SDS011;10189;49.546;7.906;2023-07-13T00:07:17;5.03;;;2.70;;
20056;SDS011;10189;49.546;7.906;2023-07-13T00:09:46;4.78;;;2.83;;
20056;SDS011;10189;49.546;7.906;2023-07-13T00:12:23;4.57;;;2.60;;
20056;SDS011;10189;49.546;7.906;2023-07-13T00:17:25;4.28;;;2.80;;
20056;SDS011;10189;49.546;7.906;2023-07-13T00:19:53;6.00;;;2.42;;
20056;SDS011;10189;49.546;7.906;2023-07-13T00:22:21;4.68;;;2.83;;
20056;SDS011;10189;49.546;7.906;2023-07-13T00:24:52;3.53;;;2.60;;
20056;SDS011;10189;49.546;7.906;2023-07-13T00:27:21;4.82;;;2.80;;
20056;SDS011;10189;49.546;7.906;2023-07-13T00:29:48;5.10;;;2.70;;
20056;SDS011;10189;49.546;7.906;2023-07-13T00:32:14;3.08;;;2.78;;
20056;SDS011;10189;49.546;7.906;2023-07-13T00:34:40;5.43;;;3.13;;
20056;SDS011;10189;49.546;7.906;2023-07-13T00:37:06;4.65;;;2.78;;
20056;SDS011;10189;49.546;7.906;2023-07-13T00:39:34;3.55;;;2.80;;
20056;SDS011;10189;49.546;7.906;2023-07-13T00:42:01;5.05;;;2.80;;
20056;SDS011;10189;49.546;7.906;2023-07-13T00:44:28;6.43;;;3.00;;
20056;SDS011;10189;49.546;7.906;2023-07-13T00:46:54;4.50;;;3.00;;
20056;SDS011;10189;49.546;7.906;2023-07-13T00:49:23;4.18;;;3.28;;
20056;SDS011;10189;49.546;7.906;2023-07-13T00:51:56;5.30;;;3.20;;
20056;SDS011;10189;49.546;7.906;2023-07-13T00:54:32;3.33;;;2.63;;
20056;SDS011;10189;49.546;7.906;2023-07-13T00:57:04;4.32;;;2.90;;
20056;SDS011;10189;49.546;7.906;2023-07-13T00:59:34;3.75;;;3.10;;
20056;SDS011;10189;49.546;7.906;2023-07-13T01:02:04;5.88;;;3.05;;
20056;SDS011;10189;49.546;7.906;2023-07-13T01:04:30;3.10;;;2.80;;
20056;SDS011;10189;49.546;7.906;2023-07-13T01:06:56;3.63;;;3.13;;
20056;SDS011;10189;49.546;7.906;2023-07-13T01:09:23;4.38;;;3.28;;
20056;SDS011;10189;49.546;7.906;2023-07-13T01:11:52;5.80;;;3.35;;
20056;SDS011;10189;49.546;7.906;2023-07-13T01:14:17;5.70;;;3.28;;
20056;SDS011;10189;49.546;7.906;2023-07-13T01:16:44;5.85;;;3.10;;
20056;SDS011;10189;49.546;7.906;2023-07-13T01:19:19;4.25;;;3.20;;
20056;SDS011;10189;49.546;7.906;2023-07-13T01:22:11;4.63;;;3.45;;
20056;SDS011;10189;49.546;7.906;2023-07-13T01:27:15;7.75;;;3.35;;
20056;SDS011;10189;49.546;7.906;2023-07-13T01:29:46;8.23;;;3.38;;
20056;SDS011;10189;49.546;7.906;2023-07-13T01:32:17;7.55;;;3.83;;
20056;SDS011;10189;49.546;7.906;2023-07-13T01:34:53;5.00;;;3.30;;
20056;SDS011;10189;49.546;7.906;2023-07-13T01:37:19;5.53;;;3.33;;
20056;SDS011;10189;49.546;7.906;2023-07-13T01:39:46;4.28;;;3.88;;
20056;SDS011;10189;49.546;7.906;2023-07-13T01:42:13;4.72;;;3.50;;
20056;SDS011;10189;49.546;7.906;2023-07-13T01:44:40;5.47;;;3.47;;
20056;SDS011;10189;49.546;7.906;2023-07-13T01:47:06;5.15;;;3.67;;
20056;SDS011;10189;49.546;7.906;2023-07-13T01:49:32;4.78;;;3.58;;
20056;SDS011;10189;49.546;7.906;2023-07-13T01:51:58;4.07;;;3.63;;
20056;SDS011;10189;49.546;7.906;2023-07-13T01:54:24;7.13;;;3.90;;
20056;SDS011;10189;49.546;7.906;2023-07-13T01:56:50;4.55;;;3.40;;
20056;SDS011;10189;49.546;7.906;2023-07-13T01:59:16;6.18;;;3.80;;
20056;SDS011;10189;49.546;7.906;2023-07-13T02:01:42;4.53;;;3.45;;
20056;SDS011;10189;49.546;7.906;2023-07-13T02:04:07;8.65;;;3.80;;
20056;SDS011;10189;49.546;7.906;2023-07-13T02:06:33;6.05;;;3.80;;
20056;SDS011;10189;49.546;7.906;2023-07-13T02:08:59;5.68;;;3.83;;
20056;SDS011;10189;49.546;7.906;2023-07-13T02:11:25;5.13;;;3.78;;
20056;SDS011;10189;49.546;7.906;2023-07-13T02:13:59;4.45;;;3.22;;
20056;SDS011;10189;49.546;7.906;2023-07-13T02:16:27;5.93;;;3.75;;
20056;SDS011;10189;49.546;7.906;2023-07-13T02:18:54;6.07;;;4.03;;
20056;SDS011;10189;49.546;7.906;2023-07-13T02:21:21;5.30;;;4.22;;
20056;SDS011;10189;49.546;7.906;2023-07-13T02:23:50;4.88;;;3.00;;
20056;SDS011;10189;49.546;7.906;2023-07-13T02:26:17;5.50;;;3.72;;
20056;SDS011;10189;49.546;7.906;2023-07-13T02:28:44;7.20;;;3.95;;
20056;SDS011;10189;49.546;7.906;2023-07-13T02:31:11;7.97;;;4.22;;
20056;SDS011;10189;49.546;7.906;2023-07-13T02:33:41;6.20;;;4.15;;
20056;SDS011;10189;49.546;7.906;2023-07-13T02:36:07;5.15;;;3.60;;
20056;SDS011;10189;49.546;7.906;2023-07-13T02:38:33;5.43;;;4.07;;
20056;SDS011;10189;49.546;7.906;2023-07-13T02:41:04;5.28;;;3.80;;
20056;SDS011;10189;49.546;7.906;2023-07-13T02:43:32;7.13;;;4.30;;
20056;SDS011;10189;49.546;7.906;2023-07-13T02:45:58;6.50;;;4.38;;
20056;SDS011;10189;49.546;7.906;2023-07-13T02:48:35;6.53;;;4.25;;
20056;SDS011;10189;49.546;7.906;2023-07-13T02:51:03;6.75;;;4.13;;
20056;SDS011;10189;49.546;7.906;2023-07-13T02:53:29;6.55;;;3.67;;
20056;SDS011;10189;49.546;7.906;2023-07-13T02:55:56;4.82;;;3.63;;
20056;SDS011;10189;49.546;7.906;2023-07-13T02:58:22;6.50;;;3.80;;
20056;SDS011;10189;49.546;7.906;2023-07-13T03:00:48;7.25;;;4.25;;
20056;SDS011;10189;49.546;7.906;2023-07-13T03:03:16;5.53;;;4.30;;
20056;SDS011;10189;49.546;7.906;2023-07-13T03:05:43;7.60;;;3.83;;
20056;SDS011;10189;49.546;7.906;2023-07-13T03:08:17;4.07;;;3.30;;
20056;SDS011;10189;49.546;7.906;2023-07-13T03:10:44;5.35;;;3.95;;
20056;SDS011;10189;49.546;7.906;2023-07-13T03:13:11;6.57;;;3.85;;
20056;SDS011;10189;49.546;7.906;2023-07-13T03:15:37;5.68;;;3.78;;
20056;SDS011;10189;49.546;7.906;2023-07-13T03:18:03;6.28;;;4.10;;
20056;SDS011;10189;49.546;7.906;2023-07-13T03:20:31;6.55;;;3.90;;
20056;SDS011;10189;49.546;7.906;2023-07-13T03:25:26;5.18;;;3.90;;
20056;SDS011;10189;49.546;7.906;2023-07-13T03:27:53;6.82;;;3.95;;
20056;SDS011;10189;49.546;7.906;2023-07-13T03:30:19;5.30;;;3.88;;
20056;SDS011;10189;49.546;7.906;2023-07-13T03:32:46;4.28;;;3.65;;
20056;SDS011;10189;49.546;7.906;2023-07-13T03:35:12;5.88;;;4.43;;
20056;SDS011;10189;49.546;7.906;2023-07-13T03:37:38;5.07;;;4.13;;
20056;SDS011;10189;49.546;7.906;2023-07-13T03:40:09;6.28;;;4.40;;
20056;SDS011;10189;49.546;7.906;2023-07-13T03:42:35;5.43;;;4.05;;
20056;SDS011;10189;49.546;7.906;2023-07-13T03:45:01;7.57;;;4.68;;
20056;SDS011;10189;49.546;7.906;2023-07-13T03:47:31;6.40;;;3.83;;
20056;SDS011;10189;49.546;7.906;2023-07-13T03:49:56;5.20;;;4.18;;
20056;SDS011;10189;49.546;7.906;2023-07-13T03:52:22;6.78;;;3.85;;
20056;SDS011;10189;49.546;7.906;2023-07-13T03:54:49;5.10;;;3.70;;
20056;SDS011;10189;49.546;7.906;2023-07-13T03:57:15;6.82;;;4.20;;
20056;SDS011;10189;49.546;7.906;2023-07-13T03:59:41;5.88;;;3.75;;
20056;SDS011;10189;49.546;7.906;2023-07-13T04:02:07;7.22;;;4.03;;
20056;SDS011;10189;49.546;7.906;2023-07-13T04:04:35;6.38;;;4.13;;
20056;SDS011;10189;49.546;7.906;2023-07-13T04:07:01;5.88;;;3.90;;
20056;SDS011;10189;49.546;7.906;2023-07-13T04:09:27;4.82;;;4.03;;
20056;SDS011;10189;49.546;7.906;2023-07-13T04:11:53;7.82;;;4.53;;
20056;SDS011;10189;49.546;7.906;2023-07-13T04:14:19;4.78;;;3.67;;
20056;SDS011;10189;49.546;7.906;2023-07-13T04:16:45;5.57;;;4.10;;
20056;SDS011;10189;49.546;7.906;2023-07-13T04:19:12;4.90;;;4.10;;
20056;SDS011;10189;49.546;7.906;2023-07-13T04:21:38;6.45;;;4.13;;
20056;SDS011;10189;49.546;7.906;2023-07-13T04:24:04;7.10;;;4.32;;
20056;SDS011;10189;49.546;7.906;2023-07-13T04:26:30;6.32;;;4.25;;
20056;SDS011;10189;49.546;7.906;2023-07-13T04:28:57;5.38;;;4.20;;
20056;SDS011;10189;49.546;7.906;2023-07-13T04:31:23;4.47;;;3.95;;
20056;SDS011;10189;49.546;7.906;2023-07-13T04:33:49;5.90;;;4.53;;
20056;SDS011;10189;49.546;7.906;2023-07-13T04:36:16;4.82;;;4.03;;
20056;SDS011;10189;49.546;7.906;2023-07-13T04:38:42;5.07;;;4.18;;
20056;SDS011;10189;49.546;7.906;2023-07-13T04:41:08;5.60;;;4.30;;
20056;SDS011;10189;49.546;7.906;2023-07-13T04:43:34;5.40;;;3.90;;
20056;SDS011;10189;49.546;7.906;2023-07-13T04:46:07;6.38;;;4.63;;
20056;SDS011;10189;49.546;7.906;2023-07-13T04:48:37;5.68;;;4.45;;
20056;SDS011;10189;49.546;7.906;2023-07-13T04:51:03;6.10;;;4.68;;
20056;SDS011;10189;49.546;7.906;2023-07-13T04:53:30;7.90;;;4.78;;
20056;SDS011;10189;49.546;7.906;2023-07-13T04:55:57;7.07;;;4.82;;
20056;SDS011;10189;49.546;7.906;2023-07-13T04:58:23;4.45;;;3.95;;
20056;SDS011;10189;49.546;7.906;2023-07-13T05:00:50;5.32;;;4.28;;
20056;SDS011;10189;49.546;7.906;2023-07-13T05:03:17;5.05;;;4.35;;
20056;SDS011;10189;49.546;7.906;2023-07-13T05:05:43;9.32;;;4.38;;
20056;SDS011;10189;49.546;7.906;2023-07-13T05:08:08;4.63;;;3.92;;
20056;SDS011;10189;49.546;7.906;2023-07-13T05:10:35;5.60;;;3.97;;
20056;SDS011;10189;49.546;7.906;2023-07-13T05:13:01;7.05;;;3.80;;
20056;SDS011;10189;49.546;7.906;2023-07-13T05:15:28;5.82;;;3.72;;
20056;SDS011;10189;49.546;7.906;2023-07-13T05:17:54;6.68;;;3.65;;
20056;SDS011;10189;49.546;7.906;2023-07-13T05:20:19;4.00;;;3.42;;
20056;SDS011;10189;49.546;7.906;2023-07-13T05:22:45;4.78;;;3.92;;
20056;SDS011;10189;49.546;7.906;2023-07-13T05:25:15;3.78;;;3.28;;
20056;SDS011;10189;49.546;7.906;2023-07-13T05:27:41;6.57;;;3.50;;
20056;SDS011;10189;49.546;7.906;2023-07-13T05:30:07;6.72;;;3.65;;
20056;SDS011;10189;49.546;7.906;2023-07-13T05:32:36;4.68;;;3.40;;
20056;SDS011;10189;49.546;7.906;2023-07-13T05:35:02;4.22;;;3.28;;
20056;SDS011;10189;49.546;7.906;2023-07-13T05:37:28;4.72;;;3.28;;
20056;SDS011;10189;49.546;7.906;2023-07-13T05:39:53;5.43;;;3.00;;
20056;SDS011;10189;49.546;7.906;2023-07-13T05:42:19;4.80;;;3.25;;
20056;SDS011;10189;49.546;7.906;2023-07-13T05:44:45;5.03;;;3.25;;
20056;SDS011;10189;49.546;7.906;2023-07-13T05:47:11;4.90;;;3.00;;
20056;SDS011;10189;49.546;7.906;2023-07-13T05:49:39;4.20;;;3.08;;
20056;SDS011;10189;49.546;7.906;2023-07-13T05:52:05;5.65;;;3.17;;
20056;SDS011;10189;49.546;7.906;2023-07-13T05:54:31;5.22;;;2.85;;
20056;SDS011;10189;49.546;7.906;2023-07-13T05:56:57;4.90;;;2.97;;
20056;SDS011;10189;49.546;7.906;2023-07-13T05:59:23;5.30;;;3.28;;
20056;SDS011;10189;49.546;7.906;2023-07-13T06:01:49;4.45;;;3.30;;
20056;SDS011;10189;49.546;7.906;2023-07-13T06:04:17;3.47;;;3.00;;
20056;SDS011;10189;49.546;7.906;2023-07-13T06:06:44;5.03;;;2.80;;
20056;SDS011;10189;49.546;7.906;2023-07-13T06:09:10;5.43;;;3.17;;
20056;SDS011;10189;49.546;7.906;2023-07-13T06:11:36;4.00;;;2.83;;
20056;SDS011;10189;49.546;7.906;2023-07-13T06:14:02;5.55;;;2.55;;
20056;SDS011;10189;49.546;7.906;2023-07-13T06:16:29;4.20;;;2.58;;
20056;SDS011;10189;49.546;7.906;2023-07-13T06:18:55;3.75;;;2.42;;
20056;SDS011;10189;49.546;7.906;2023-07-13T06:21:21;3.50;;;2.17;;
20056;SDS011;10189;49.546;7.906;2023-07-13T06:23:49;4.43;;;2.30;;
20056;SDS011;10189;49.546;7.906;2023-07-13T06:26:20;3.67;;;1.75;;
20056;SDS011;10189;49.546;7.906;2023-07-13T06:28:46;3.58;;;2.00;;
20056;SDS011;10189;49.546;7.906;2023-07-13T06:31:12;5.03;;;1.55;;
20056;SDS011;10189;49.546;7.906;2023-07-13T06:33:39;5.43;;;1.95;;
20056;SDS011;10189;49.546;7.906;2023-07-13T06:36:06;4.43;;;1.83;;
20056;SDS011;10189;49.546;7.906;2023-07-13T06:38:33;5.15;;;1.70;;
20056;SDS011;10189;49.546;7.906;2023-07-13T06:41:00;4.97;;;2.10;;
20056;SDS011;10189;49.546;7.906;2023-07-13T06:43:26;3.10;;;1.70;;
20056;SDS011;10189;49.546;7.906;2023-07-13T06:45:54;2.78;;;1.58;;
20056;SDS011;10189;49.546;7.906;2023-07-13T06:48:21;3.47;;;1.95;;
20056;SDS011;10189;49.546;7.906;2023-07-13T06:50:48;4.88;;;1.70;;
20056;SDS011;10189;49.546;7.906;2023-07-13T06:53:16;4.72;;;2.00;;
20056;SDS011;10189;49.546;7.906;2023-07-13T06:55:44;4.90;;;1.75;;
20056;SDS011;10189;49.546;7.906;2023-07-13T06:58:11;4.05;;;1.70;;
20056;SDS011;10189;49.546;7.906;2023-07-13T07:00:37;4.90;;;2.17;;
20056;SDS011;10189;49.546;7.906;2023-07-13T07:03:05;3.53;;;1.88;;
20056;SDS011;10189;49.546;7.906;2023-07-13T07:05:31;5.43;;;1.67;;
20056;SDS011;10189;49.546;7.906;2023-07-13T07:07:57;5.68;;;2.10;;
20056;SDS011;10189;49.546;7.906;2023-07-13T07:10:24;3.80;;;2.10;;
20056;SDS011;10189;49.546;7.906;2023-07-13T07:12:50;2.78;;;2.10;;
20056;SDS011;10189;49.546;7.906;2023-07-13T07:15:16;6.40;;;2.03;;
20056;SDS011;10189;49.546;7.906;2023-07-13T07:17:43;6.03;;;2.00;;
20056;SDS011;10189;49.546;7.906;2023-07-13T07:20:10;3.28;;;2.05;;
20056;SDS011;10189;49.546;7.906;2023-07-13T07:22:36;5.60;;;2.35;;
20056;SDS011;10189;49.546;7.906;2023-07-13T07:25:02;6.53;;;2.42;;
20056;SDS011;10189;49.546;7.906;2023-07-13T07:27:28;3.92;;;2.13;;
20056;SDS011;10189;49.546;7.906;2023-07-13T07:29:54;3.63;;;1.70;;
20056;SDS011;10189;49.546;7.906;2023-07-13T07:32:20;4.00;;;1.65;;
20056;SDS011;10189;49.546;7.906;2023-07-13T07:34:46;4.10;;;1.80;;
20056;SDS011;10189;49.546;7.906;2023-07-13T07:37:12;4.03;;;1.67;;
20056;SDS011;10189;49.546;7.906;2023-07-13T07:39:38;6.28;;;2.10;;
20056;SDS011;10189;49.546;7.906;2023-07-13T07:42:05;4.03;;;2.10;;
20056;SDS011;10189;49.546;7.906;2023-07-13T07:44:32;3.85;;;1.92;;
20056;SDS011;10189;49.546;7.906;2023-07-13T07:46:59;3.42;;;2.00;;
20056;SDS011;10189;49.546;7.906;2023-07-13T07:49:25;5.38;;;2.03;;
20056;SDS011;10189;49.546;7.906;2023-07-13T07:51:51;4.10;;;1.83;;
20056;SDS011;10189;49.546;7.906;2023-07-13T07:54:17;6.25;;;1.88;;
20056;SDS011;10189;49.546;7.906;2023-07-13T07:56:43;3.47;;;1.63;;
20056;SDS011;10189;49.546;7.906;2023-07-13T07:59:09;3.33;;;1.70;;
20056;SDS011;10189;49.546;7.906;2023-07-13T08:01:35;3.35;;;1.73;;
20056;SDS011;10189;49.546;7.906;2023-07-13T08:04:01;3.90;;;1.67;;
20056;SDS011;10189;49.546;7.906;2023-07-13T08:06:27;4.40;;;1.88;;
20056;SDS011;10189;49.546;7.906;2023-07-13T08:08:54;4.00;;;1.58;;
20056;SDS011;10189;49.546;7.906;2023-07-13T08:11:21;4.88;;;1.90;;
20056;SDS011;10189;49.546;7.906;2023-07-13T08:13:47;4.53;;;1.85;;
20056;SDS011;10189;49.546;7.906;2023-07-13T08:16:15;4.68;;;1.80;;
20056;SDS011;10189;49.546;7.906;2023-07-13T08:18:41;5.85;;;1.73;;
20056;SDS011;10189;49.546;7.906;2023-07-13T08:21:08;5.25;;;1.77;;
20056;SDS011;10189;49.546;7.906;2023-07-13T08:23:35;2.75;;;1.80;;
20056;SDS011;10189;49.546;7.906;2023-07-13T08:26:01;5.50;;;1.60;;
20056;SDS011;10189;49.546;7.906;2023-07-13T08:28:29;5.90;;;1.90;;
20056;SDS011;10189;49.546;7.906;2023-07-13T08:31:01;6.00;;;2.03;;
20056;SDS011;10189;49.546;7.906;2023-07-13T08:33:33;5.40;;;2.10;;
20056;SDS011;10189;49.546;7.906;2023-07-13T08:36:01;5.55;;;1.85;;
20056;SDS011;10189;49.546;7.906;2023-07-13T08:38:28;3.50;;;1.80;;
20056;SDS011;10189;49.546;7.906;2023-07-13T08:40:54;4.65;;;1.70;;
20056;SDS011;10189;49.546;7.906;2023-07-13T08:43:28;4.70;;;1.83;;
20056;SDS011;10189;49.546;7.906;2023-07-13T08:46:12;3.72;;;1.80;;
20056;SDS011;10189;49.546;7.906;2023-07-13T08:48:52;5.63;;;2.05;;
20056;SDS011;10189;49.546;7.906;2023-07-13T08:51:28;5.32;;;1.70;;
20056;SDS011;10189;49.546;7.906;2023-07-13T08:54:18;3.97;;;1.60;;
20056;SDS011;10189;49.546;7.906;2023-07-13T08:56:50;4.93;;;2.00;;
20056;SDS011;10189;49.546;7.906;2023-07-13T08:59:20;4.40;;;1.90;;
20056;SDS011;10189;49.546;7.906;2023-07-13T09:04:42;4.18;;;2.00;;
20056;SDS011;10189;49.546;7.906;2023-07-13T09:10:41;6.03;;;1.98;;
20056;SDS011;10189;49.546;7.906;2023-07-13T09:16:04;4.90;;;2.17;;
20056;SDS011;10189;49.546;7.906;2023-07-13T09:18:35;4.68;;;2.13;;
20056;SDS011;10189;49.546;7.906;2023-07-13T09:23:40;5.47;;;1.92;;
20056;SDS011;10189;49.546;7.906;2023-07-13T09:26:14;3.85;;;1.52;;
20056;SDS011;10189;49.546;7.906;2023-07-13T09:28:47;5.13;;;2.17;;
20056;SDS011;10189;49.546;7.906;2023-07-13T09:31:23;4.38;;;1.80;;
20056;SDS011;10189;49.546;7.906;2023-07-13T09:33:59;3.78;;;1.92;;
20056;SDS011;10189;49.546;7.906;2023-07-13T09:36:28;6.32;;;1.83;;
20056;SDS011;10189;49.546;7.906;2023-07-13T09:44:17;2.72;;;1.40;;
20056;SDS011;10189;49.546;7.906;2023-07-13T09:46:56;4.75;;;1.65;;
20056;SDS011;10189;49.546;7.906;2023-07-13T09:49:26;3.33;;;1.50;;
20056;SDS011;10189;49.546;7.906;2023-07-13T09:52:02;4.72;;;1.52;;
20056;SDS011;10189;49.546;7.906;2023-07-13T09:54:33;3.17;;;1.50;;
20056;SDS011;10189;49.546;7.906;2023-07-13T09:57:01;3.72;;;1.58;;
20056;SDS011;10189;49.546;7.906;2023-07-13T09:59:42;4.10;;;1.50;;
20056;SDS011;10189;49.546;7.906;2023-07-13T10:04:53;4.15;;;1.83;;
20056;SDS011;10189;49.546;7.906;2023-07-13T10:07:44;4.03;;;1.52;;
20056;SDS011;10189;49.546;7.906;2023-07-13T10:10:14;3.55;;;1.40;;
20056;SDS011;10189;49.546;7.906;2023-07-13T10:12:47;3.08;;;1.50;;
20056;SDS011;10189;49.546;7.906;2023-07-13T10:15:22;3.90;;;1.50;;
20056;SDS011;10189;49.546;7.906;2023-07-13T10:17:51;5.57;;;1.70;;
20056;SDS011;10189;49.546;7.906;2023-07-13T10:20:20;4.03;;;1.50;;
20056;SDS011;10189;49.546;7.906;2023-07-13T10:22:52;2.90;;;1.40;;
20056;SDS011;10189;49.546;7.906;2023-07-13T10:25:29;3.88;;;1.70;;
20056;SDS011;10189;49.546;7.906;2023-07-13T10:28:14;3.50;;;1.50;;
20056;SDS011;10189;49.546;7.906;2023-07-13T10:30:54;2.95;;;1.40;;
20056;SDS011;10189;49.546;7.906;2023-07-13T10:33:26;2.88;;;1.60;;
20056;SDS011;10189;49.546;7.906;2023-07-13T10:35:54;4.70;;;1.70;;
20056;SDS011;10189;49.546;7.906;2023-07-13T10:38:38;3.30;;;1.40;;
20056;SDS011;10189;49.546;7.906;2023-07-13T10:41:07;3.00;;;1.25;;
20056;SDS011;10189;49.546;7.906;2023-07-13T10:43:42;3.55;;;1.40;;
20056;SDS011;10189;49.546;7.906;2023-07-13T10:46:16;4.47;;;1.50;;
20056;SDS011;10189;49.546;7.906;2023-07-13T10:48:49;5.40;;;1.35;;
20056;SDS011;10189;49.546;7.906;2023-07-13T10:51:21;2.88;;;1.20;;
20056;SDS011;10189;49.546;7.906;2023-07-13T10:54:10;2.10;;;1.40;;
20056;SDS011;10189;49.546;7.906;2023-07-13T10:56:48;3.55;;;1.60;;
20056;SDS011;10189;49.546;7.906;2023-07-13T10:59:23;3.03;;;1.48;;
20056;SDS011;10189;49.546;7.906;2023-07-13T11:02:05;3.85;;;1.60;;
20056;SDS011;10189;49.546;7.906;2023-07-13T11:04:44;3.85;;;1.80;;
20056;SDS011;10189;49.546;7.906;2023-07-13T11:07:26;6.80;;;1.40;;
20056;SDS011;10189;49.546;7.906;2023-07-13T11:09:56;3.60;;;1.38;;
20056;SDS011;10189;49.546;7.906;2023-07-13T11:20:31;2.42;;;1.45;;
20056;SDS011;10189;49.546;7.906;2023-07-13T11:25:37;3.45;;;1.30;;
20056;SDS011;10189;49.546;7.906;2023-07-13T11:30:43;3.53;;;1.45;;
20056;SDS011;10189;49.546;7.906;2023-07-13T11:33:30;4.50;;;1.80;;
20056;SDS011;10189;49.546;7.906;2023-07-13T11:36:19;3.15;;;1.63;;
20056;SDS011;10189;49.546;7.906;2023-07-13T11:38:57;2.33;;;1.60;;
20056;SDS011;10189;49.546;7.906;2023-07-13T11:41:37;3.30;;;1.60;;
20056;SDS011;10189;49.546;7.906;2023-07-13T11:44:12;5.57;;;1.70;;
20056;SDS011;10189;49.546;7.906;2023-07-13T11:46:49;2.33;;;1.50;;
20056;SDS011;10189;49.546;7.906;2023-07-13T11:49:21;2.67;;;1.58;;
20056;SDS011;10189;49.546;7.906;2023-07-13T11:51:49;2.80;;;1.55;;
20056;SDS011;10189;49.546;7.906;2023-07-13T11:56:49;3.67;;;1.33;;
20056;SDS011;10189;49.546;7.906;2023-07-13T11:59:15;2.97;;;1.80;;
20056;SDS011;10189;49.546;7.906;2023-07-13T12:01:43;4.05;;;1.60;;
20056;SDS011;10189;49.546;7.906;2023-07-13T12:04:28;3.83;;;1.70;;
20056;SDS011;10189;49.546;7.906;2023-07-13T12:07:03;4.78;;;2.03;;
20056;SDS011;10189;49.546;7.906;2023-07-13T12:09:30;4.78;;;1.50;;
20056;SDS011;10189;49.546;7.906;2023-07-13T12:11:58;4.30;;;1.40;;
20056;SDS011;10189;49.546;7.906;2023-07-13T12:14:27;4.70;;;1.52;;
20056;SDS011;10189;49.546;7.906;2023-07-13T12:16:54;3.13;;;1.50;;
20056;SDS011;10189;49.546;7.906;2023-07-13T12:19:28;3.78;;;1.17;;
20056;SDS011;10189;49.546;7.906;2023-07-13T12:21:57;3.95;;;1.50;;
20056;SDS011;10189;49.546;7.906;2023-07-13T12:24:24;2.72;;;1.70;;
20056;SDS011;10189;49.546;7.906;2023-07-13T12:26:59;5.30;;;1.60;;
20056;SDS011;10189;49.546;7.906;2023-07-13T12:29:31;3.30;;;1.30;;
20056;SDS011;10189;49.546;7.906;2023-07-13T12:31:58;5.82;;;1.77;;
20056;SDS011;10189;49.546;7.906;2023-07-13T12:34:25;4.88;;;1.60;;
20056;SDS011;10189;49.546;7.906;2023-07-13T12:39:38;2.22;;;1.30;;
20056;SDS011;10189;49.546;7.906;2023-07-13T12:42:19;4.07;;;1.60;;
20056;SDS011;10189;49.546;7.906;2023-07-13T12:44:58;3.15;;;1.88;;
20056;SDS011;10189;49.546;7.906;2023-07-13T12:47:49;3.75;;;1.42;;
20056;SDS011;10189;49.546;7.906;2023-07-13T12:50:28;4.88;;;1.50;;
20056;SDS011;10189;49.546;7.906;2023-07-13T12:53:03;4.20;;;1.40;;
20056;SDS011;10189;49.546;7.906;2023-07-13T12:55:41;3.50;;;1.60;;
20056;SDS011;10189;49.546;7.906;2023-07-13T12:58:17;2.70;;;1.33;;
20056;SDS011;10189;49.546;7.906;2023-07-13T13:01:09;5.57;;;1.60;;
20056;SDS011;10189;49.546;7.906;2023-07-13T13:03:38;4.43;;;1.63;;
20056;SDS011;10189;49.546;7.906;2023-07-13T13:08:44;3.33;;;1.73;;
20056;SDS011;10189;49.546;7.906;2023-07-13T13:11:17;4.20;;;1.70;;
20056;SDS011;10189;49.546;7.906;2023-07-13T13:13:44;5.57;;;1.80;;
20056;SDS011;10189;49.546;7.906;2023-07-13T13:18:53;4.00;;;1.55;;
20056;SDS011;10189;49.546;7.906;2023-07-13T13:21:22;3.42;;;1.33;;
20056;SDS011;10189;49.546;7.906;2023-07-13T13:23:50;8.35;;;1.75;;
20056;SDS011;10189;49.546;7.906;2023-07-13T13:26:17;3.90;;;1.58;;
20056;SDS011;10189;49.546;7.906;2023-07-13T13:28:46;4.13;;;1.40;;
20056;SDS011;10189;49.546;7.906;2023-07-13T13:31:15;3.70;;;1.42;;
20056;SDS011;10189;49.546;7.906;2023-07-13T13:33:42;6.05;;;1.50;;
20056;SDS011;10189;49.546;7.906;2023-07-13T13:36:17;4.28;;;1.52;;
20056;SDS011;10189;49.546;7.906;2023-07-13T13:38:47;3.75;;;1.70;;
20056;SDS011;10189;49.546;7.906;2023-07-13T13:41:15;3.80;;;1.75;;
20056;SDS011;10189;49.546;7.906;2023-07-13T13:43:42;3.65;;;1.70;;
20056;SDS011;10189;49.546;7.906;2023-07-13T13:46:14;2.70;;;1.60;;
20056;SDS011;10189;49.546;7.906;2023-07-13T13:48:44;5.43;;;1.60;;
20056;SDS011;10189;49.546;7.906;2023-07-13T13:51:23;2.53;;;1.50;;
20056;SDS011;10189;49.546;7.906;2023-07-13T13:53:50;2.78;;;1.30;;
20056;SDS011;10189;49.546;7.906;2023-07-13T13:56:17;5.05;;;1.30;;
20056;SDS011;10189;49.546;7.906;2023-07-13T13:58:44;4.38;;;1.40;;
20056;SDS011;10189;49.546;7.906;2023-07-13T14:01:16;4.03;;;1.38;;
20056;SDS011;10189;49.546;7.906;2023-07-13T14:03:48;1.92;;;1.17;;
20056;SDS011;10189;49.546;7.906;2023-07-13T14:06:16;1.75;;;1.20;;
20056;SDS011;10189;49.546;7.906;2023-07-13T14:08:42;3.45;;;1.40;;
20056;SDS011;10189;49.546;7.906;2023-07-13T14:11:16;3.60;;;1.40;;
20056;SDS011;10189;49.546;7.906;2023-07-13T14:13:46;2.17;;;1.15;;
20056;SDS011;10189;49.546;7.906;2023-07-13T14:16:17;4.55;;;1.40;;
20056;SDS011;10189;49.546;7.906;2023-07-13T14:18:46;3.42;;;1.48;;
20056;SDS011;10189;49.546;7.906;2023-07-13T14:21:17;3.22;;;1.45;;
20056;SDS011;10189;49.546;7.906;2023-07-13T14:23:46;2.33;;;1.27;;
20056;SDS011;10189;49.546;7.906;2023-07-13T14:26:15;4.45;;;1.52;;
20056;SDS011;10189;49.546;7.906;2023-07-13T14:28:49;4.10;;;1.40;;
20056;SDS011;10189;49.546;7.906;2023-07-13T14:31:20;4.38;;;1.50;;
20056;SDS011;10189;49.546;7.906;2023-07-13T14:33:48;5.38;;;1.50;;
20056;SDS011;10189;49.546;7.906;2023-07-13T14:38:55;2.92;;;1.30;;
20056;SDS011;10189;49.546;7.906;2023-07-13T14:41:24;3.22;;;1.20;;
20056;SDS011;10189;49.546;7.906;2023-07-13T14:43:50;3.95;;;1.30;;
20056;SDS011;10189;49.546;7.906;2023-07-13T14:46:35;1.80;;;1.15;;
20056;SDS011;10189;49.546;7.906;2023-07-13T14:49:04;3.90;;;1.35;;
20056;SDS011;10189;49.546;7.906;2023-07-13T14:51:56;6.22;;;1.65;;
20056;SDS011;10189;49.546;7.906;2023-07-13T14:54:33;2.88;;;1.17;;
20056;SDS011;10189;49.546;7.906;2023-07-13T14:56:59;4.30;;;1.30;;
20056;SDS011;10189;49.546;7.906;2023-07-13T14:59:26;1.92;;;1.25;;
20056;SDS011;10189;49.546;7.906;2023-07-13T15:01:52;3.63;;;1.27;;
20056;SDS011;10189;49.546;7.906;2023-07-13T15:04:18;1.80;;;1.10;;
20056;SDS011;10189;49.546;7.906;2023-07-13T15:06:57;3.20;;;1.10;;
20056;SDS011;10189;49.546;7.906;2023-07-13T15:09:28;3.20;;;1.30;;
20056;SDS011;10189;49.546;7.906;2023-07-13T15:11:55;2.55;;;1.25;;
20056;SDS011;10189;49.546;7.906;2023-07-13T15:14:22;5.32;;;1.42;;
20056;SDS011;10189;49.546;7.906;2023-07-13T15:16:49;2.50;;;1.30;;
20056;SDS011;10189;49.546;7.906;2023-07-13T15:19:18;2.80;;;1.20;;
20056;SDS011;10189;49.546;7.906;2023-07-13T15:21:46;4.25;;;1.38;;
20056;SDS011;10189;49.546;7.906;2023-07-13T15:24:13;3.20;;;1.42;;
20056;SDS011;10189;49.546;7.906;2023-07-13T15:26:42;4.15;;;1.23;;
20056;SDS011;10189;49.546;7.906;2023-07-13T15:29:10;3.22;;;1.30;;
20056;SDS011;10189;49.546;7.906;2023-07-13T15:31:37;1.83;;;1.27;;
20056;SDS011;10189;49.546;7.906;2023-07-13T15:34:09;2.25;;;1.30;;
20056;SDS011;10189;49.546;7.906;2023-07-13T15:36:42;2.35;;;0.90;;
20056;SDS011;10189;49.546;7.906;2023-07-13T15:39:13;3.05;;;1.30;;
20056;SDS011;10189;49.546;7.906;2023-07-13T15:41:41;3.70;;;1.10;;
20056;SDS011;10189;49.546;7.906;2023-07-13T15:44:23;4.00;;;1.20;;
20056;SDS011;10189;49.546;7.906;2023-07-13T15:46:56;6.93;;;1.50;;
20056;SDS011;10189;49.546;7.906;2023-07-13T15:49:25;3.60;;;1.30;;
20056;SDS011;10189;49.546;7.906;2023-07-13T15:51:51;4.00;;;1.50;;
20056;SDS011;10189;49.546;7.906;2023-07-13T15:54:18;3.20;;;1.20;;
20056;SDS011;10189;49.546;7.906;2023-07-13T15:56:45;2.50;;;1.30;;